sensor_id;sensor_type;location;lat;lon;timestamp;temperature;humidity
17843;DHT22;69286;48.222;16.332;2023-07-13T00:01:54;22.80;88.60
17843;DHT22;69286;48.222;16.332;2023-07-13T00:04:23;22.70;89.30
17843;DHT22;69286;48.222;16.332;2023-07-13T00:06:52;22.70;89.80
17843;DHT22;69286;48.222;16.332;2023-07-13T00:09:20;22.70;90.20
17843;DHT22;69286;48.222;16.332;2023-07-13T00:11:50;22.70;90.00
17843;DHT22;69286;48.222;16.332;2023-07-13T00:14:18;22.70;90.00
17843;DHT22;69286;48.222;16.332;2023-07-13T00:16:46;22.60;90.20
17843;DHT22;69286;48.222;16.332;2023-07-13T00:19:13;22.50;90.00
17843;DHT22;69286;48.222;16.332;2023-07-13T00:21:41;22.50;90.20
17843;DHT22;69286;48.222;16.332;2023-07-13T00:24:11;22.50;90.20
17843;DHT22;69286;48.222;16.332;2023-07-13T00:26:39;22.50;90.20
17843;DHT22;69286;48.222;16.332;2023-07-13T00:29:06;22.50;90.00
17843;DHT22;69286;48.222;16.332;2023-07-13T00:31:35;22.50;90.10
17843;DHT22;69286;48.222;16.332;2023-07-13T00:34:03;22.40;89.40
17843;DHT22;69286;48.222;16.332;2023-07-13T00:36:31;22.40;88.90
17843;DHT22;69286;48.222;16.332;2023-07-13T00:38:58;22.40;88.50
17843;DHT22;69286;48.222;16.332;2023-07-13T00:41:25;22.40;88.70
17843;DHT22;69286;48.222;16.332;2023-07-13T00:43:52;22.40;88.90
17843;DHT22;69286;48.222;16.332;2023-07-13T00:46:23;22.40;89.40
17843;DHT22;69286;48.222;16.332;2023-07-13T00:48:52;22.30;89.60
17843;DHT22;69286;48.222;16.332;2023-07-13T00:51:24;22.30;89.60
17843;DHT22;69286;48.222;16.332;2023-07-13T00:53:53;22.30;88.70
17843;DHT22;69286;48.222;16.332;2023-07-13T00:56:21;22.30;87.10
17843;DHT22;69286;48.222;16.332;2023-07-13T00:58:49;22.40;85.50
17843;DHT22;69286;48.222;16.332;2023-07-13T01:01:16;22.40;83.30
17843;DHT22;69286;48.222;16.332;2023-07-13T01:03:44;22.50;82.20
17843;DHT22;69286;48.222;16.332;2023-07-13T01:06:12;22.50;80.50
17843;DHT22;69286;48.222;16.332;2023-07-13T01:08:41;22.60;79.70
17843;DHT22;69286;48.222;16.332;2023-07-13T01:11:07;22.70;78.30
17843;DHT22;69286;48.222;16.332;2023-07-13T01:13:34;22.70;77.30
17843;DHT22;69286;48.222;16.332;2023-07-13T01:16:05;22.80;76.90
17843;DHT22;69286;48.222;16.332;2023-07-13T01:18:36;22.80;76.40
17843;DHT22;69286;48.222;16.332;2023-07-13T01:21:05;22.90;76.20
17843;DHT22;69286;48.222;16.332;2023-07-13T01:23:33;22.90;76.00
17843;DHT22;69286;48.222;16.332;2023-07-13T01:26:00;22.90;75.90
17843;DHT22;69286;48.222;16.332;2023-07-13T01:28:28;22.90;76.00
17843;DHT22;69286;48.222;16.332;2023-07-13T01:30:58;22.90;75.90
17843;DHT22;69286;48.222;16.332;2023-07-13T01:33:25;22.90;75.80
17843;DHT22;69286;48.222;16.332;2023-07-13T01:35:52;22.90;76.20
17843;DHT22;69286;48.222;16.332;2023-07-13T01:38:23;22.80;76.20
17843;DHT22;69286;48.222;16.332;2023-07-13T01:40:50;22.80;76.40
17843;DHT22;69286;48.222;16.332;2023-07-13T01:43:18;22.90;76.30
17843;DHT22;69286;48.222;16.332;2023-07-13T01:45:45;22.80;76.30
17843;DHT22;69286;48.222;16.332;2023-07-13T01:48:13;22.80;76.30
17843;DHT22;69286;48.222;16.332;2023-07-13T01:50:40;22.90;76.50
17843;DHT22;69286;48.222;16.332;2023-07-13T01:53:07;22.90;76.50
17843;DHT22;69286;48.222;16.332;2023-07-13T01:55:36;22.90;76.90
17843;DHT22;69286;48.222;16.332;2023-07-13T01:58:04;22.90;76.80
17843;DHT22;69286;48.222;16.332;2023-07-13T02:00:32;23.00;76.80
17843;DHT22;69286;48.222;16.332;2023-07-13T02:02:59;23.00;76.80
17843;DHT22;69286;48.222;16.332;2023-07-13T02:05:26;23.10;76.80
17843;DHT22;69286;48.222;16.332;2023-07-13T02:07:53;23.10;76.80
17843;DHT22;69286;48.222;16.332;2023-07-13T02:10:20;23.10;76.90
17843;DHT22;69286;48.222;16.332;2023-07-13T02:12:48;23.10;76.70
17843;DHT22;69286;48.222;16.332;2023-07-13T02:15:16;23.10;77.00
17843;DHT22;69286;48.222;16.332;2023-07-13T02:17:44;23.10;77.10
17843;DHT22;69286;48.222;16.332;2023-07-13T02:20:11;23.20;77.20
17843;DHT22;69286;48.222;16.332;2023-07-13T02:22:38;23.20;77.30
17843;DHT22;69286;48.222;16.332;2023-07-13T02:25:05;23.20;77.50
17843;DHT22;69286;48.222;16.332;2023-07-13T02:27:32;23.20;77.50
17843;DHT22;69286;48.222;16.332;2023-07-13T02:30:01;23.20;77.60
17843;DHT22;69286;48.222;16.332;2023-07-13T02:32:28;23.30;77.70
17843;DHT22;69286;48.222;16.332;2023-07-13T02:34:55;23.20;77.60
17843;DHT22;69286;48.222;16.332;2023-07-13T02:37:22;23.30;77.90
17843;DHT22;69286;48.222;16.332;2023-07-13T02:39:49;23.20;78.10
17843;DHT22;69286;48.222;16.332;2023-07-13T02:42:17;23.20;78.40
17843;DHT22;69286;48.222;16.332;2023-07-13T02:44:44;23.20;78.50
17843;DHT22;69286;48.222;16.332;2023-07-13T02:47:12;23.20;78.90
17843;DHT22;69286;48.222;16.332;2023-07-13T02:49:39;23.20;79.30
17843;DHT22;69286;48.222;16.332;2023-07-13T02:52:06;23.20;79.50
17843;DHT22;69286;48.222;16.332;2023-07-13T02:54:33;23.20;80.00
17843;DHT22;69286;48.222;16.332;2023-07-13T02:57:00;23.20;81.30
17843;DHT22;69286;48.222;16.332;2023-07-13T02:59:27;23.20;82.10
17843;DHT22;69286;48.222;16.332;2023-07-13T03:01:54;23.10;82.30
17843;DHT22;69286;48.222;16.332;2023-07-13T03:04:23;23.00;83.20
17843;DHT22;69286;48.222;16.332;2023-07-13T03:06:50;23.10;84.90
17843;DHT22;69286;48.222;16.332;2023-07-13T03:09:17;23.00;84.50
17843;DHT22;69286;48.222;16.332;2023-07-13T03:11:44;22.90;85.30
17843;DHT22;69286;48.222;16.332;2023-07-13T03:14:11;22.90;86.10
17843;DHT22;69286;48.222;16.332;2023-07-13T03:16:38;22.90;87.30
17843;DHT22;69286;48.222;16.332;2023-07-13T03:19:05;22.80;87.00
17843;DHT22;69286;48.222;16.332;2023-07-13T03:21:33;22.70;88.20
17843;DHT22;69286;48.222;16.332;2023-07-13T03:24:00;22.70;89.20
17843;DHT22;69286;48.222;16.332;2023-07-13T03:26:27;22.70;89.60
17843;DHT22;69286;48.222;16.332;2023-07-13T03:28:55;22.60;90.00
17843;DHT22;69286;48.222;16.332;2023-07-13T03:31:25;22.50;90.60
17843;DHT22;69286;48.222;16.332;2023-07-13T03:33:54;22.40;90.80
17843;DHT22;69286;48.222;16.332;2023-07-13T03:36:23;22.30;90.90
17843;DHT22;69286;48.222;16.332;2023-07-13T03:38:53;22.20;91.50
17843;DHT22;69286;48.222;16.332;2023-07-13T03:41:21;22.20;91.80
17843;DHT22;69286;48.222;16.332;2023-07-13T03:43:48;22.20;92.10
17843;DHT22;69286;48.222;16.332;2023-07-13T03:46:16;22.10;93.00
17843;DHT22;69286;48.222;16.332;2023-07-13T03:48:45;22.00;93.60
17843;DHT22;69286;48.222;16.332;2023-07-13T03:51:15;22.00;93.80
17843;DHT22;69286;48.222;16.332;2023-07-13T03:53:44;21.90;94.40
17843;DHT22;69286;48.222;16.332;2023-07-13T03:56:12;21.90;94.70
17843;DHT22;69286;48.222;16.332;2023-07-13T03:58:42;21.90;95.10
17843;DHT22;69286;48.222;16.332;2023-07-13T04:01:11;21.80;94.90
17843;DHT22;69286;48.222;16.332;2023-07-13T04:03:38;21.80;95.30
17843;DHT22;69286;48.222;16.332;2023-07-13T04:06:07;21.70;95.80
17843;DHT22;69286;48.222;16.332;2023-07-13T04:08:36;21.70;96.10
17843;DHT22;69286;48.222;16.332;2023-07-13T04:11:04;21.70;96.30
17843;DHT22;69286;48.222;16.332;2023-07-13T04:13:33;21.70;96.60
17843;DHT22;69286;48.222;16.332;2023-07-13T04:16:00;21.70;97.10
17843;DHT22;69286;48.222;16.332;2023-07-13T04:18:27;21.60;97.50
17843;DHT22;69286;48.222;16.332;2023-07-13T04:20:54;21.60;97.90
17843;DHT22;69286;48.222;16.332;2023-07-13T04:23:21;21.60;98.40
17843;DHT22;69286;48.222;16.332;2023-07-13T04:25:50;21.50;98.80
17843;DHT22;69286;48.222;16.332;2023-07-13T04:28:18;21.50;99.60
17843;DHT22;69286;48.222;16.332;2023-07-13T04:30:46;21.50;99.80
17843;DHT22;69286;48.222;16.332;2023-07-13T04:33:13;21.50;99.90
17843;DHT22;69286;48.222;16.332;2023-07-13T04:35:42;21.50;99.90
17843;DHT22;69286;48.222;16.332;2023-07-13T04:38:10;21.50;99.90
17843;DHT22;69286;48.222;16.332;2023-07-13T04:40:38;21.50;99.90
17843;DHT22;69286;48.222;16.332;2023-07-13T04:43:05;21.50;99.90
17843;DHT22;69286;48.222;16.332;2023-07-13T04:45:32;21.60;99.90
17843;DHT22;69286;48.222;16.332;2023-07-13T04:48:00;21.60;99.90
17843;DHT22;69286;48.222;16.332;2023-07-13T04:50:27;21.50;99.90
17843;DHT22;69286;48.222;16.332;2023-07-13T04:52:54;21.50;99.90
17843;DHT22;69286;48.222;16.332;2023-07-13T04:55:21;21.50;99.90
17843;DHT22;69286;48.222;16.332;2023-07-13T04:57:48;21.60;99.90
17843;DHT22;69286;48.222;16.332;2023-07-13T05:00:15;21.70;99.90
17843;DHT22;69286;48.222;16.332;2023-07-13T05:02:44;21.70;99.90
17843;DHT22;69286;48.222;16.332;2023-07-13T05:05:13;21.70;99.90
17843;DHT22;69286;48.222;16.332;2023-07-13T05:07:40;21.80;99.90
17843;DHT22;69286;48.222;16.332;2023-07-13T05:10:09;21.80;99.90
17843;DHT22;69286;48.222;16.332;2023-07-13T05:12:36;21.80;99.90
17843;DHT22;69286;48.222;16.332;2023-07-13T05:15:03;21.90;99.90
17843;DHT22;69286;48.222;16.332;2023-07-13T05:17:30;21.90;99.90
17843;DHT22;69286;48.222;16.332;2023-07-13T05:19:58;21.90;99.90
17843;DHT22;69286;48.222;16.332;2023-07-13T05:22:26;21.90;99.90
17843;DHT22;69286;48.222;16.332;2023-07-13T05:24:53;22.10;99.90
17843;DHT22;69286;48.222;16.332;2023-07-13T05:27:20;22.20;99.80
17843;DHT22;69286;48.222;16.332;2023-07-13T05:29:47;22.50;98.60
17843;DHT22;69286;48.222;16.332;2023-07-13T05:32:14;22.60;97.30
17843;DHT22;69286;48.222;16.332;2023-07-13T05:34:41;22.80;96.40
17843;DHT22;69286;48.222;16.332;2023-07-13T05:39:37;22.90;95.50
17843;DHT22;69286;48.222;16.332;2023-07-13T05:42:04;22.90;95.70
17843;DHT22;69286;48.222;16.332;2023-07-13T05:44:31;22.90;95.20
17843;DHT22;69286;48.222;16.332;2023-07-13T05:46:58;22.80;94.70
17843;DHT22;69286;48.222;16.332;2023-07-13T05:54:20;22.60;94.80
17843;DHT22;69286;48.222;16.332;2023-07-13T05:56:48;22.60;94.90
17843;DHT22;69286;48.222;16.332;2023-07-13T05:59:15;22.60;95.20
17843;DHT22;69286;48.222;16.332;2023-07-13T06:01:42;22.50;95.30
17843;DHT22;69286;48.222;16.332;2023-07-13T06:04:09;22.50;95.30
17843;DHT22;69286;48.222;16.332;2023-07-13T06:06:36;22.40;95.60
17843;DHT22;69286;48.222;16.332;2023-07-13T06:11:30;22.10;95.70
17843;DHT22;69286;48.222;16.332;2023-07-13T06:13:58;22.20;96.10
17843;DHT22;69286;48.222;16.332;2023-07-13T06:16:25;22.10;96.60
17843;DHT22;69286;48.222;16.332;2023-07-13T06:18:52;22.10;96.30
17843;DHT22;69286;48.222;16.332;2023-07-13T06:21:20;22.00;96.30
17843;DHT22;69286;48.222;16.332;2023-07-13T06:23:49;22.10;96.50
17843;DHT22;69286;48.222;16.332;2023-07-13T06:26:17;22.00;96.50
17843;DHT22;69286;48.222;16.332;2023-07-13T06:28:44;22.10;97.00
17843;DHT22;69286;48.222;16.332;2023-07-13T06:31:14;22.10;97.30
17843;DHT22;69286;48.222;16.332;2023-07-13T06:33:41;22.10;97.70
17843;DHT22;69286;48.222;16.332;2023-07-13T06:36:08;22.10;98.00
17843;DHT22;69286;48.222;16.332;2023-07-13T06:38:36;22.10;97.80
17843;DHT22;69286;48.222;16.332;2023-07-13T06:41:03;22.20;97.70
17843;DHT22;69286;48.222;16.332;2023-07-13T06:43:30;22.20;97.40
17843;DHT22;69286;48.222;16.332;2023-07-13T06:45:58;22.20;97.50
17843;DHT22;69286;48.222;16.332;2023-07-13T06:48:27;22.20;97.60
17843;DHT22;69286;48.222;16.332;2023-07-13T06:50:54;22.30;97.70
17843;DHT22;69286;48.222;16.332;2023-07-13T06:53:22;22.30;97.60
17843;DHT22;69286;48.222;16.332;2023-07-13T06:55:49;22.40;97.20
17843;DHT22;69286;48.222;16.332;2023-07-13T06:58:18;22.50;96.80
17843;DHT22;69286;48.222;16.332;2023-07-13T07:00:45;22.60;96.60
17843;DHT22;69286;48.222;16.332;2023-07-13T07:03:12;22.70;96.20
17843;DHT22;69286;48.222;16.332;2023-07-13T07:05:41;22.80;96.20
17843;DHT22;69286;48.222;16.332;2023-07-13T07:08:08;22.90;96.20
17843;DHT22;69286;48.222;16.332;2023-07-13T07:10:35;23.20;95.90
17843;DHT22;69286;48.222;16.332;2023-07-13T07:13:03;23.70;95.10
17843;DHT22;69286;48.222;16.332;2023-07-13T07:15:30;24.00;94.10
17843;DHT22;69286;48.222;16.332;2023-07-13T07:18:00;24.10;93.20
17843;DHT22;69286;48.222;16.332;2023-07-13T07:20:27;23.40;92.50
17843;DHT22;69286;48.222;16.332;2023-07-13T07:22:55;23.80;92.60
17843;DHT22;69286;48.222;16.332;2023-07-13T07:25:22;23.70;92.90
17843;DHT22;69286;48.222;16.332;2023-07-13T07:27:49;23.60;92.40
17843;DHT22;69286;48.222;16.332;2023-07-13T07:30:16;23.60;92.30
17843;DHT22;69286;48.222;16.332;2023-07-13T07:32:43;23.50;92.20
17843;DHT22;69286;48.222;16.332;2023-07-13T07:35:10;23.50;92.20
17843;DHT22;69286;48.222;16.332;2023-07-13T07:37:37;23.60;92.10
17843;DHT22;69286;48.222;16.332;2023-07-13T07:40:07;23.60;91.90
17843;DHT22;69286;48.222;16.332;2023-07-13T07:42:34;23.60;91.80
17843;DHT22;69286;48.222;16.332;2023-07-13T07:45:01;23.70;91.90
17843;DHT22;69286;48.222;16.332;2023-07-13T07:47:28;23.80;91.40
17843;DHT22;69286;48.222;16.332;2023-07-13T07:49:55;23.90;91.10
17843;DHT22;69286;48.222;16.332;2023-07-13T07:52:22;23.90;90.90
17843;DHT22;69286;48.222;16.332;2023-07-13T07:54:49;24.00;91.10
17843;DHT22;69286;48.222;16.332;2023-07-13T07:57:17;24.00;90.90
17843;DHT22;69286;48.222;16.332;2023-07-13T07:59:44;24.00;90.70
17843;DHT22;69286;48.222;16.332;2023-07-13T08:02:11;24.10;90.30
17843;DHT22;69286;48.222;16.332;2023-07-13T08:04:38;24.40;90.00
17843;DHT22;69286;48.222;16.332;2023-07-13T08:07:05;25.50;86.00
17843;DHT22;69286;48.222;16.332;2023-07-13T08:09:32;26.20;82.40
17843;DHT22;69286;48.222;16.332;2023-07-13T08:11:59;27.70;77.70
17843;DHT22;69286;48.222;16.332;2023-07-13T08:14:28;28.60;73.70
17843;DHT22;69286;48.222;16.332;2023-07-13T08:16:55;28.90;70.90
17843;DHT22;69286;48.222;16.332;2023-07-13T08:19:22;29.30;69.50
17843;DHT22;69286;48.222;16.332;2023-07-13T08:21:49;30.70;65.30
17843;DHT22;69286;48.222;16.332;2023-07-13T08:24:16;33.00;59.30
17843;DHT22;69286;48.222;16.332;2023-07-13T08:26:44;34.30;55.20
17843;DHT22;69286;48.222;16.332;2023-07-13T08:29:12;34.80;53.80
17843;DHT22;69286;48.222;16.332;2023-07-13T08:31:40;35.40;51.60
17843;DHT22;69286;48.222;16.332;2023-07-13T08:34:07;35.80;50.10
17843;DHT22;69286;48.222;16.332;2023-07-13T08:36:34;36.20;49.00
17843;DHT22;69286;48.222;16.332;2023-07-13T08:39:01;35.80;49.00
17843;DHT22;69286;48.222;16.332;2023-07-13T08:41:28;35.90;49.30
17843;DHT22;69286;48.222;16.332;2023-07-13T08:43:58;35.90;48.60
17843;DHT22;69286;48.222;16.332;2023-07-13T08:46:28;36.20;48.20
17843;DHT22;69286;48.222;16.332;2023-07-13T08:49:02;36.20;48.10
17843;DHT22;69286;48.222;16.332;2023-07-13T08:51:44;36.00;48.20
17843;DHT22;69286;48.222;16.332;2023-07-13T08:54:20;35.60;48.70
17843;DHT22;69286;48.222;16.332;2023-07-13T08:56:50;35.90;48.50
17843;DHT22;69286;48.222;16.332;2023-07-13T08:59:21;36.20;48.70
17843;DHT22;69286;48.222;16.332;2023-07-13T09:02:05;36.90;47.70
17843;DHT22;69286;48.222;16.332;2023-07-13T09:04:41;37.40;47.40
17843;DHT22;69286;48.222;16.332;2023-07-13T09:07:16;38.30;45.90
17843;DHT22;69286;48.222;16.332;2023-07-13T09:09:52;38.70;45.00
17843;DHT22;69286;48.222;16.332;2023-07-13T09:12:29;39.30;44.40
17843;DHT22;69286;48.222;16.332;2023-07-13T09:14:59;40.00;43.50
17843;DHT22;69286;48.222;16.332;2023-07-13T09:17:35;40.40;42.80
17843;DHT22;69286;48.222;16.332;2023-07-13T09:20:13;39.30;42.90
17843;DHT22;69286;48.222;16.332;2023-07-13T09:22:43;37.90;44.50
17843;DHT22;69286;48.222;16.332;2023-07-13T09:25:23;36.70;46.20
17843;DHT22;69286;48.222;16.332;2023-07-13T09:27:53;35.50;48.10
17843;DHT22;69286;48.222;16.332;2023-07-13T09:30:27;34.70;49.40
17843;DHT22;69286;48.222;16.332;2023-07-13T09:32:57;34.70;49.70
17843;DHT22;69286;48.222;16.332;2023-07-13T09:35:28;34.70;49.90
17843;DHT22;69286;48.222;16.332;2023-07-13T09:37:59;34.80;49.90
17843;DHT22;69286;48.222;16.332;2023-07-13T09:40:35;35.70;48.70
17843;DHT22;69286;48.222;16.332;2023-07-13T09:43:04;35.50;48.40
17843;DHT22;69286;48.222;16.332;2023-07-13T09:45:34;35.10;48.70
17843;DHT22;69286;48.222;16.332;2023-07-13T09:48:05;35.00;48.90
17843;DHT22;69286;48.222;16.332;2023-07-13T09:50:34;34.70;48.90
17843;DHT22;69286;48.222;16.332;2023-07-13T09:53:02;34.30;49.50
17843;DHT22;69286;48.222;16.332;2023-07-13T09:55:32;34.10;50.20
17843;DHT22;69286;48.222;16.332;2023-07-13T09:58:04;34.10;50.20
17843;DHT22;69286;48.222;16.332;2023-07-13T10:00:32;34.00;50.20
17843;DHT22;69286;48.222;16.332;2023-07-13T10:03:02;33.90;50.10
17843;DHT22;69286;48.222;16.332;2023-07-13T10:05:39;33.80;50.70
17843;DHT22;69286;48.222;16.332;2023-07-13T10:08:16;33.50;50.30
17843;DHT22;69286;48.222;16.332;2023-07-13T10:10:44;33.00;51.10
17843;DHT22;69286;48.222;16.332;2023-07-13T10:13:29;32.50;51.80
17843;DHT22;69286;48.222;16.332;2023-07-13T10:15:58;32.20;52.30
17843;DHT22;69286;48.222;16.332;2023-07-13T10:18:26;31.90;52.80
17843;DHT22;69286;48.222;16.332;2023-07-13T10:21:00;31.80;53.20
17843;DHT22;69286;48.222;16.332;2023-07-13T10:23:35;31.70;53.70
17843;DHT22;69286;48.222;16.332;2023-07-13T10:26:03;31.70;53.30
17843;DHT22;69286;48.222;16.332;2023-07-13T10:28:35;31.60;53.00
17843;DHT22;69286;48.222;16.332;2023-07-13T10:31:06;31.60;53.40
17843;DHT22;69286;48.222;16.332;2023-07-13T10:33:36;31.70;53.40
17843;DHT22;69286;48.222;16.332;2023-07-13T10:36:13;31.70;52.70
17843;DHT22;69286;48.222;16.332;2023-07-13T10:38:41;31.80;52.70
17843;DHT22;69286;48.222;16.332;2023-07-13T10:41:14;31.90;52.80
17843;DHT22;69286;48.222;16.332;2023-07-13T10:43:43;31.90;52.70
17843;DHT22;69286;48.222;16.332;2023-07-13T10:46:12;31.80;53.00
17843;DHT22;69286;48.222;16.332;2023-07-13T10:48:41;31.80;52.70
17843;DHT22;69286;48.222;16.332;2023-07-13T10:51:14;31.90;52.90
17843;DHT22;69286;48.222;16.332;2023-07-13T10:53:41;32.00;52.60
17843;DHT22;69286;48.222;16.332;2023-07-13T10:56:22;32.10;51.80
17843;DHT22;69286;48.222;16.332;2023-07-13T10:59:02;32.00;51.60
17843;DHT22;69286;48.222;16.332;2023-07-13T11:01:41;32.00;51.60
17843;DHT22;69286;48.222;16.332;2023-07-13T11:04:13;32.00;51.60
17843;DHT22;69286;48.222;16.332;2023-07-13T11:06:43;32.00;51.20
17843;DHT22;69286;48.222;16.332;2023-07-13T11:09:34;32.10;51.00
17843;DHT22;69286;48.222;16.332;2023-07-13T11:12:06;32.20;50.60
17843;DHT22;69286;48.222;16.332;2023-07-13T11:14:36;32.30;50.00
17843;DHT22;69286;48.222;16.332;2023-07-13T11:17:32;32.40;49.40
17843;DHT22;69286;48.222;16.332;2023-07-13T11:20:10;32.30;49.50
17843;DHT22;69286;48.222;16.332;2023-07-13T11:22:49;32.40;49.80
17843;DHT22;69286;48.222;16.332;2023-07-13T11:25:28;32.40;49.30
17843;DHT22;69286;48.222;16.332;2023-07-13T11:28:11;32.40;49.30
17843;DHT22;69286;48.222;16.332;2023-07-13T11:30:44;32.40;49.70
17843;DHT22;69286;48.222;16.332;2023-07-13T11:33:17;32.40;49.30
17843;DHT22;69286;48.222;16.332;2023-07-13T11:35:51;32.40;49.60
17843;DHT22;69286;48.222;16.332;2023-07-13T11:38:21;32.20;49.80
17843;DHT22;69286;48.222;16.332;2023-07-13T11:40:51;32.10;50.10
17843;DHT22;69286;48.222;16.332;2023-07-13T11:43:20;31.90;50.20
17843;DHT22;69286;48.222;16.332;2023-07-13T11:45:49;32.00;50.50
17843;DHT22;69286;48.222;16.332;2023-07-13T11:48:26;31.90;50.70
17843;DHT22;69286;48.222;16.332;2023-07-13T11:50:57;31.80;50.20
17843;DHT22;69286;48.222;16.332;2023-07-13T11:53:30;31.70;50.00
17843;DHT22;69286;48.222;16.332;2023-07-13T11:56:01;31.60;50.50
17843;DHT22;69286;48.222;16.332;2023-07-13T11:58:28;31.40;50.30
17843;DHT22;69286;48.222;16.332;2023-07-13T12:00:57;31.40;50.50
17843;DHT22;69286;48.222;16.332;2023-07-13T12:03:26;31.20;50.50
17843;DHT22;69286;48.222;16.332;2023-07-13T12:05:59;31.10;51.00
17843;DHT22;69286;48.222;16.332;2023-07-13T12:08:28;31.00;51.30
17843;DHT22;69286;48.222;16.332;2023-07-13T12:11:00;31.00;51.40
17843;DHT22;69286;48.222;16.332;2023-07-13T12:13:36;31.00;51.60
17843;DHT22;69286;48.222;16.332;2023-07-13T12:16:17;30.90;51.40
17843;DHT22;69286;48.222;16.332;2023-07-13T12:18:47;30.90;51.40
17843;DHT22;69286;48.222;16.332;2023-07-13T12:21:17;30.90;51.60
17843;DHT22;69286;48.222;16.332;2023-07-13T12:23:48;30.90;50.90
17843;DHT22;69286;48.222;16.332;2023-07-13T12:26:17;30.90;50.70
17843;DHT22;69286;48.222;16.332;2023-07-13T12:28:47;30.90;51.30
17843;DHT22;69286;48.222;16.332;2023-07-13T12:31:26;30.90;51.50
17843;DHT22;69286;48.222;16.332;2023-07-13T12:33:58;30.80;51.30
17843;DHT22;69286;48.222;16.332;2023-07-13T12:36:26;30.70;51.30
17843;DHT22;69286;48.222;16.332;2023-07-13T12:38:57;30.80;50.90
17843;DHT22;69286;48.222;16.332;2023-07-13T12:41:29;30.70;51.30
17843;DHT22;69286;48.222;16.332;2023-07-13T12:43:56;30.60;51.90
17843;DHT22;69286;48.222;16.332;2023-07-13T12:46:24;30.50;51.50
17843;DHT22;69286;48.222;16.332;2023-07-13T12:48:56;30.40;51.80
17843;DHT22;69286;48.222;16.332;2023-07-13T12:51:25;30.30;52.40
17843;DHT22;69286;48.222;16.332;2023-07-13T12:53:59;30.40;52.10
17843;DHT22;69286;48.222;16.332;2023-07-13T12:56:32;30.50;52.20
17843;DHT22;69286;48.222;16.332;2023-07-13T12:59:02;30.60;52.30
17843;DHT22;69286;48.222;16.332;2023-07-13T13:01:34;30.70;52.20
17843;DHT22;69286;48.222;16.332;2023-07-13T13:04:03;30.70;52.40
17843;DHT22;69286;48.222;16.332;2023-07-13T13:06:32;30.60;52.30
17843;DHT22;69286;48.222;16.332;2023-07-13T13:09:03;30.50;52.40
17843;DHT22;69286;48.222;16.332;2023-07-13T13:11:31;30.50;53.00
17843;DHT22;69286;48.222;16.332;2023-07-13T13:13:59;30.60;52.60
17843;DHT22;69286;48.222;16.332;2023-07-13T13:16:31;30.60;52.50
17843;DHT22;69286;48.222;16.332;2023-07-13T13:19:02;30.60;52.50
17843;DHT22;69286;48.222;16.332;2023-07-13T13:21:31;30.50;52.50
17843;DHT22;69286;48.222;16.332;2023-07-13T13:23:58;30.50;52.80
17843;DHT22;69286;48.222;16.332;2023-07-13T13:26:26;30.40;52.80
17843;DHT22;69286;48.222;16.332;2023-07-13T13:28:53;30.50;52.80
17843;DHT22;69286;48.222;16.332;2023-07-13T13:31:20;30.50;52.50
17843;DHT22;69286;48.222;16.332;2023-07-13T13:33:47;30.60;52.60
17843;DHT22;69286;48.222;16.332;2023-07-13T13:36:16;30.60;52.10
17843;DHT22;69286;48.222;16.332;2023-07-13T13:38:44;30.70;51.80
17843;DHT22;69286;48.222;16.332;2023-07-13T13:41:13;30.70;51.50
17843;DHT22;69286;48.222;16.332;2023-07-13T13:43:42;30.80;51.50
17843;DHT22;69286;48.222;16.332;2023-07-13T13:46:16;30.80;51.30
17843;DHT22;69286;48.222;16.332;2023-07-13T13:48:44;30.80;51.40
17843;DHT22;69286;48.222;16.332;2023-07-13T13:51:16;30.80;51.30
17843;DHT22;69286;48.222;16.332;2023-07-13T13:53:44;30.80;50.90
17843;DHT22;69286;48.222;16.332;2023-07-13T13:56:11;30.80;50.70
17843;DHT22;69286;48.222;16.332;2023-07-13T13:58:38;30.70;51.00
17843;DHT22;69286;48.222;16.332;2023-07-13T14:01:12;30.80;50.70
17843;DHT22;69286;48.222;16.332;2023-07-13T14:03:40;30.90;50.70
17843;DHT22;69286;48.222;16.332;2023-07-13T14:06:09;30.90;50.90
17843;DHT22;69286;48.222;16.332;2023-07-13T14:08:38;30.90;50.60
17843;DHT22;69286;48.222;16.332;2023-07-13T14:11:05;30.90;50.90
17843;DHT22;69286;48.222;16.332;2023-07-13T14:13:37;30.90;51.30
17843;DHT22;69286;48.222;16.332;2023-07-13T14:16:11;30.90;50.80
17843;DHT22;69286;48.222;16.332;2023-07-13T14:18:39;30.80;50.60
17843;DHT22;69286;48.222;16.332;2023-07-13T14:21:12;30.60;50.90
17843;DHT22;69286;48.222;16.332;2023-07-13T14:23:39;30.60;51.90
17843;DHT22;69286;48.222;16.332;2023-07-13T14:26:10;30.50;51.80
17843;DHT22;69286;48.222;16.332;2023-07-13T14:28:41;30.40;51.80
17843;DHT22;69286;48.222;16.332;2023-07-13T14:31:10;30.30;52.20
17843;DHT22;69286;48.222;16.332;2023-07-13T14:33:37;30.30;52.00
17843;DHT22;69286;48.222;16.332;2023-07-13T14:36:20;30.30;52.10
17843;DHT22;69286;48.222;16.332;2023-07-13T14:38:48;30.20;52.00
17843;DHT22;69286;48.222;16.332;2023-07-13T14:41:16;30.00;51.80
17843;DHT22;69286;48.222;16.332;2023-07-13T14:43:43;29.90;52.20
17843;DHT22;69286;48.222;16.332;2023-07-13T14:46:21;29.70;52.30
17843;DHT22;69286;48.222;16.332;2023-07-13T14:48:51;29.60;52.70
17843;DHT22;69286;48.222;16.332;2023-07-13T14:51:20;29.50;53.00
17843;DHT22;69286;48.222;16.332;2023-07-13T14:53:47;29.50;53.00
17843;DHT22;69286;48.222;16.332;2023-07-13T14:56:14;29.40;53.10
17843;DHT22;69286;48.222;16.332;2023-07-13T14:58:43;29.30;53.10
17843;DHT22;69286;48.222;16.332;2023-07-13T15:01:14;29.20;53.20
17843;DHT22;69286;48.222;16.332;2023-07-13T15:03:45;29.10;53.50
17843;DHT22;69286;48.222;16.332;2023-07-13T15:06:13;29.10;53.70
17843;DHT22;69286;48.222;16.332;2023-07-13T15:08:41;29.10;53.70
17843;DHT22;69286;48.222;16.332;2023-07-13T15:11:09;29.10;53.80
17843;DHT22;69286;48.222;16.332;2023-07-13T15:13:37;29.10;53.90
17843;DHT22;69286;48.222;16.332;2023-07-13T15:16:15;29.10;54.00
17843;DHT22;69286;48.222;16.332;2023-07-13T15:18:45;29.00;54.20
17843;DHT22;69286;48.222;16.332;2023-07-13T15:21:20;29.10;54.80
17843;DHT22;69286;48.222;16.332;2023-07-13T15:23:48;29.20;54.10
17843;DHT22;69286;48.222;16.332;2023-07-13T15:26:16;29.10;54.10
17843;DHT22;69286;48.222;16.332;2023-07-13T15:28:44;29.00;54.20
17843;DHT22;69286;48.222;16.332;2023-07-13T15:31:21;28.90;54.50
17843;DHT22;69286;48.222;16.332;2023-07-13T15:33:49;28.70;54.60
17843;DHT22;69286;48.222;16.332;2023-07-13T15:36:17;28.70;54.90
17843;DHT22;69286;48.222;16.332;2023-07-13T15:38:46;28.60;55.30